Time;durP1;ratioP1;P1;durP2;ratioP2;P2;SDS_P1;SDS_P2;PMS_P1;PMS_P2;Temp;Humidity;BMP_temperature;BMP_pressure;BME280_temperature;BME280_humidity;BME280_pressure;Samples;Min_cycle;Max_cycle;Signal;HPM_P1;HPM_P2
2022/02/02 00:00:38;;;;;;;7.23;2.20;;;5.90;50.10;;;;;;5043926;28;20653;-70
2022/02/02 00:03:10;;;;;;;4.40;2.63;;;5.90;50.10;;;;;;5063407;28;20312;-70
2022/02/02 00:06:11;;;;;;;5.00;2.70;;;5.80;49.90;;;;;;5054972;28;20588;-70
2022/02/02 00:08:36;;;;;;;4.60;2.47;;;5.90;50.00;;;;;;5046599;28;20663;-70
2022/02/02 00:21:16;;;;;;;4.37;2.53;;;5.70;50.30;;;;;;5046399;28;20256;-70
2022/02/02 00:23:47;;;;;;;6.13;2.90;;;5.60;50.30;;;;;;5047151;28;20196;-70
2022/02/02 00:26:24;;;;;;;5.80;3.07;;;5.60;50.50;;;;;;5050553;28;20213;-70
2022/02/02 00:28:55;;;;;;;4.83;3.00;;;5.60;50.60;;;;;;5042113;28;20220;-70
2022/02/02 00:31:28;;;;;;;5.17;3.17;;;5.60;50.60;;;;;;5054373;28;20635;-70
2022/02/02 00:34:03;;;;;;;4.90;2.50;;;5.50;50.60;;;;;;5054487;28;20209;-71
2022/02/02 00:36:42;;;;;;;4.97;3.00;;;5.50;50.90;;;;;;5037961;28;20209;-71
2022/02/02 00:39:10;;;;;;;5.10;2.83;;;5.50;51.00;;;;;;5031444;28;20227;-71
2022/02/02 00:41:37;;;;;;;5.37;3.00;;;5.40;51.10;;;;;;5044311;28;20253;-71
2022/02/02 00:44:04;;;;;;;4.03;2.70;;;5.40;51.30;;;;;;5044441;28;20622;-71
2022/02/02 00:46:32;;;;;;;3.77;2.87;;;5.40;51.30;;;;;;5044962;28;20200;-71
2022/02/02 00:49:04;;;;;;;5.00;3.10;;;5.40;51.30;;;;;;5040820;28;20224;-71
2022/02/02 00:51:40;;;;;;;5.53;3.13;;;5.40;51.30;;;;;;5039198;28;20205;-71
2022/02/02 00:54:09;;;;;;;5.13;3.03;;;5.40;51.40;;;;;;5045943;28;20213;-70
2022/02/02 00:56:36;;;;;;;5.57;3.40;;;5.40;51.50;;;;;;5051204;28;20207;-70
2022/02/02 00:59:03;;;;;;;4.40;2.87;;;5.40;51.70;;;;;;5030996;28;20218;-71
2022/02/02 01:01:30;;;;;;;5.80;2.97;;;5.40;51.80;;;;;;5048383;28;20208;-71
2022/02/02 01:03:57;;;;;;;5.30;3.27;;;5.30;51.80;;;;;;5045325;28;20258;-69
2022/02/02 01:06:27;;;;;;;10.43;3.67;;;5.30;51.90;;;;;;5044680;28;20214;-70
2022/02/02 01:22:04;;;;;;;5.27;2.80;;;5.20;51.40;;;;;;5043011;28;20237;-70
2022/02/02 01:29:57;;;;;;;3.03;2.73;;;5.10;52.00;;;;;;5060211;28;20210;-70
2022/02/02 01:32:24;;;;;;;6.23;2.57;;;5.10;52.20;;;;;;5045433;28;20239;-71
2022/02/02 01:34:53;;;;;;;4.37;2.17;;;5.10;52.50;;;;;;5052728;28;20629;-70
2022/02/02 01:37:21;;;;;;;3.67;1.97;;;5.10;52.90;;;;;;5041021;28;20219;-70
2022/02/02 01:39:55;;;;;;;2.93;2.30;;;5.10;52.70;;;;;;5043502;28;20574;-71
2022/02/02 01:42:25;;;;;;;2.27;2.07;;;5.30;52.40;;;;;;5047400;28;20208;-70
2022/02/02 01:45:04;;;;;;;2.97;2.20;;;5.50;52.00;;;;;;5044354;28;20628;-71
2022/02/02 01:47:40;;;;;;;5.27;2.40;;;5.70;51.50;;;;;;5051102;28;20207;-71
2022/02/02 01:50:23;;;;;;;4.20;2.40;;;5.90;51.40;;;;;;5052506;28;20242;-70
2022/02/02 01:55:38;;;;;;;4.27;2.17;;;6.10;50.80;;;;;;5042249;28;20212;-70
2022/02/02 02:00:40;;;;;;;3.40;2.27;;;6.10;50.90;;;;;;5038833;28;20213;-70
2022/02/02 02:03:07;;;;;;;3.30;2.07;;;6.10;50.90;;;;;;5051585;28;20212;-70
2022/02/02 02:05:34;;;;;;;3.57;2.17;;;6.10;50.90;;;;;;5045304;28;20213;-70
2022/02/02 02:08:02;;;;;;;3.90;2.53;;;6.10;50.90;;;;;;5039247;28;20226;-70
2022/02/02 02:10:29;;;;;;;5.30;2.80;;;6.10;50.80;;;;;;5044570;28;20216;-71
2022/02/02 02:13:02;;;;;;;3.97;2.63;;;6.10;50.80;;;;;;5044961;28;20654;-70
2022/02/02 02:15:31;;;;;;;4.70;2.77;;;6.10;51.00;;;;;;5046259;28;20210;-70
2022/02/02 02:17:59;;;;;;;7.37;3.77;;;6.10;50.90;;;;;;5044222;28;20606;-69
2022/02/02 02:20:27;;;;;;;5.33;2.70;;;6.10;50.90;;;;;;5044676;28;20704;-69
2022/02/02 02:22:54;;;;;;;3.23;2.47;;;6.10;51.10;;;;;;5029683;28;20215;-69
2022/02/02 02:25:24;;;;;;;4.97;3.23;;;6.10;51.20;;;;;;5049476;28;20213;-69
2022/02/02 02:27:53;;;;;;;6.47;3.17;;;6.10;51.20;;;;;;5046269;28;20258;-70
2022/02/02 02:57:18;;;;;;;4.20;3.50;;;5.00;54.50;;;;;;5042553;28;20201;-70
2022/02/02 03:00:03;;;;;;;8.83;3.40;;;4.80;55.30;;;;;;5049005;28;20204;-70
2022/02/02 03:51:48;;;;;;;7.80;4.83;;;3.90;60.70;;;;;;5046482;28;20204;-70
2022/02/02 03:57:18;;;;;;;5.30;4.33;;;3.70;60.90;;;;;;5043205;28;20209;-70
2022/02/02 04:04:48;;;;;;;5.77;4.60;;;3.40;62.10;;;;;;5047154;28;20419;-70
2022/02/02 04:07:29;;;;;;;7.97;4.87;;;3.40;62.20;;;;;;5040788;28;20212;-71
2022/02/02 04:09:56;;;;;;;7.20;5.30;;;3.30;62.40;;;;;;5046615;28;20238;-70
2022/02/02 05:08:34;;;;;;;10.97;7.27;;;2.70;66.80;;;;;;5041644;28;20219;-71
2022/02/02 05:11:19;;;;;;;18.07;9.07;;;2.70;66.30;;;;;;5045791;28;20278;-71
2022/02/02 05:16:42;;;;;;;13.77;8.20;;;2.60;67.00;;;;;;5039639;28;20214;-70
2022/02/02 05:48:44;;;;;;;23.80;11.10;;;2.10;70.40;;;;;;5044260;28;20218;-70
2022/02/02 05:53:41;;;;;;;22.10;10.90;;;2.10;70.90;;;;;;5042041;28;20199;-70
2022/02/02 05:56:08;;;;;;;23.47;11.03;;;2.10;71.10;;;;;;5042081;28;20234;-70
2022/02/02 05:58:40;;;;;;;19.13;11.23;;;2.10;71.40;;;;;;5041526;28;20280;-70
2022/02/02 06:01:11;;;;;;;22.93;11.87;;;2.10;71.40;;;;;;5044541;28;20199;-70
2022/02/02 06:03:38;;;;;;;23.17;11.33;;;2.10;71.60;;;;;;5048947;28;20213;-70
2022/02/02 06:06:06;;;;;;;24.17;11.00;;;2.10;72.00;;;;;;5038897;28;20211;-70
2022/02/02 06:08:34;;;;;;;24.30;12.43;;;2.10;72.20;;;;;;5041602;28;20199;-70
2022/02/02 06:11:05;;;;;;;22.37;12.13;;;2.10;72.10;;;;;;5041338;28;20545;-70
2022/02/02 06:13:40;;;;;;;16.90;11.90;;;2.10;72.00;;;;;;5044900;28;20214;-70
2022/02/02 06:16:08;;;;;;;23.10;11.70;;;2.10;72.10;;;;;;5039529;28;20202;-70
2022/02/02 06:18:37;;;;;;;25.57;11.83;;;2.10;71.80;;;;;;5042873;28;20681;-70
2022/02/02 06:21:09;;;;;;;24.47;11.17;;;2.00;71.70;;;;;;5048542;28;20235;-70
2022/02/02 06:24:10;;;;;;;18.60;11.00;;;2.00;71.60;;;;;;5026638;28;20220;-70
2022/02/02 06:26:40;;;;;;;19.93;11.03;;;1.90;71.50;;;;;;5040043;28;20209;-70
2022/02/02 06:29:12;;;;;;;19.80;10.40;;;1.90;71.90;;;;;;5034796;28;20234;-70
2022/02/02 06:31:41;;;;;;;17.30;10.40;;;1.90;72.40;;;;;;5030432;28;20298;-70
2022/02/02 06:34:13;;;;;;;18.23;9.93;;;1.90;72.60;;;;;;5051654;28;20206;-70
2022/02/02 06:36:41;;;;;;;18.83;10.10;;;1.90;72.10;;;;;;5036797;28;20202;-70
2022/02/02 06:39:11;;;;;;;21.20;11.37;;;1.80;71.90;;;;;;5046430;28;20213;-70
2022/02/02 06:41:38;;;;;;;23.00;12.20;;;1.80;71.90;;;;;;5055549;28;20206;-70
2022/02/02 06:44:05;;;;;;;21.70;11.43;;;1.70;72.10;;;;;;5042552;28;20714;-70
2022/02/02 06:46:37;;;;;;;17.97;10.90;;;1.70;72.60;;;;;;5041434;28;20261;-70
2022/02/02 06:49:04;;;;;;;17.97;11.17;;;1.70;73.20;;;;;;5038457;28;20242;-70
2022/02/02 06:51:42;;;;;;;23.17;12.33;;;1.80;73.70;;;;;;5041214;28;20199;-70
2022/02/02 06:54:31;;;;;;;21.37;14.00;;;1.90;73.60;;;;;;5048842;28;20222;-70
2022/02/02 06:57:15;;;;;;;24.23;14.03;;;2.00;73.70;;;;;;5042256;28;20214;-70
2022/02/02 07:10:55;;;;;;;32.03;15.60;;;3.10;72.50;;;;;;5044718;28;20222;-70
2022/02/02 07:22:36;;;;;;;33.07;17.03;;;3.90;71.60;;;;;;5039639;28;20597;-70
2022/02/02 07:32:23;;;;;;;35.43;15.07;;;5.80;64.40;;;;;;5051979;28;20214;-70
2022/02/02 07:38:12;;;;;;;35.10;16.30;;;6.30;62.80;;;;;;5056261;28;20256;-70
2022/02/02 07:40:43;;;;;;;26.93;16.77;;;6.50;62.60;;;;;;5043953;28;20613;-70
2022/02/02 07:43:31;;;;;;;36.20;16.63;;;6.30;63.00;;;;;;5032542;28;20718;-70
2022/02/02 07:46:03;;;;;;;26.27;16.07;;;6.00;64.40;;;;;;5050664;28;20623;-70
2022/02/02 07:48:35;;;;;;;22.67;15.33;;;5.80;65.90;;;;;;5055227;28;20214;-70
2022/02/02 07:51:07;;;;;;;26.33;15.80;;;5.70;66.80;;;;;;5043632;28;20243;-70
2022/02/02 07:53:42;;;;;;;27.80;16.27;;;5.90;67.20;;;;;;5054949;28;20199;-70
2022/02/02 07:56:39;;;;;;;28.43;17.90;;;6.00;67.60;;;;;;5052600;28;20203;-70
2022/02/02 07:59:28;;;;;;;36.57;19.07;;;6.00;68.20;;;;;;5059435;28;20212;-70
2022/02/02 08:01:57;;;;;;;32.67;20.20;;;6.00;68.60;;;;;;5054608;28;20217;-70
2022/02/02 08:04:28;;;;;;;34.30;20.83;;;6.00;69.20;;;;;;5058234;28;20217;-70
2022/02/02 08:06:57;;;;;;;35.47;20.00;;;6.10;69.90;;;;;;5047176;28;20205;-70
2022/02/02 08:11:54;;;;;;;30.73;20.00;;;6.20;71.10;;;;;;5042939;28;20663;-70
2022/02/02 08:14:29;;;;;;;32.50;19.50;;;6.20;72.20;;;;;;5052108;28;20219;-70
2022/02/02 08:16:56;;;;;;;35.03;20.27;;;6.20;72.40;;;;;;5047062;28;20303;-70
2022/02/02 08:19:23;;;;;;;31.73;20.53;;;6.30;72.90;;;;;;5046165;28;20205;-70
2022/02/02 08:21:50;;;;;;;29.90;19.00;;;6.30;73.20;;;;;;5055996;28;20236;-70
2022/02/02 08:24:19;;;;;;;32.17;20.23;;;6.30;73.50;;;;;;5052854;28;20238;-70
2022/02/02 08:26:47;;;;;;;34.07;20.57;;;6.40;73.80;;;;;;5054683;28;20204;-70
2022/02/02 08:29:15;;;;;;;30.53;20.03;;;6.50;74.30;;;;;;5052409;28;20241;-70
2022/02/02 08:31:43;;;;;;;30.33;19.17;;;6.60;74.50;;;;;;5057507;28;20228;-70
2022/02/02 08:34:12;;;;;;;29.77;19.23;;;6.80;74.60;;;;;;5047132;28;20666;-69
2022/02/02 08:36:49;;;;;;;34.30;20.63;;;6.90;74.70;;;;;;5043886;28;20210;-69
2022/02/02 08:39:38;;;;;;;31.63;20.17;;;7.00;74.70;;;;;;5045163;28;20670;-69
2022/02/02 08:42:08;;;;;;;29.87;20.23;;;7.20;74.70;;;;;;5047461;28;20204;-70
2022/02/02 08:45:01;;;;;;;28.17;19.10;;;7.30;74.40;;;;;;5046030;28;20214;-70
2022/02/02 08:47:29;;;;;;;35.63;20.60;;;7.50;74.30;;;;;;5052875;28;20206;-70
2022/02/02 08:49:59;;;;;;;28.83;18.53;;;7.60;74.10;;;;;;5043929;28;20572;-69
2022/02/02 08:52:38;;;;;;;30.37;18.53;;;7.80;73.90;;;;;;5046425;28;20217;-68
2022/02/02 08:55:52;;;;;;;30.43;17.93;;;7.90;73.60;;;;;;5050403;28;20289;-68
2022/02/02 08:58:21;;;;;;;30.37;17.80;;;8.10;73.20;;;;;;5044017;28;20220;-68
2022/02/02 09:00:51;;;;;;;25.20;17.33;;;8.20;72.70;;;;;;5051239;28;20202;-68
2022/02/02 09:06:04;;;;;;;28.60;19.93;;;8.40;72.30;;;;;;5051924;28;20212;-68
2022/02/02 09:08:35;;;;;;;31.17;20.10;;;8.50;71.90;;;;;;5039900;28;20220;-69
2022/02/02 09:35:34;;;;;;;30.77;18.03;;;9.50;69.40;;;;;;5038116;28;20523;-69
2022/02/02 09:38:02;;;;;;;24.67;17.17;;;9.50;69.20;;;;;;5059139;28;20203;-68
2022/02/02 09:41:15;;;;;;;27.13;16.90;;;9.60;69.20;;;;;;5045141;28;20200;-68
2022/02/02 09:43:33;;;;;;;34.90;22.13;;;9.60;69.20;;;;;;5052434;28;20253;-68
2022/02/02 09:46:12;;;;;;;42.03;28.57;;;9.70;69.30;;;;;;5052539;28;20654;-68
2022/02/02 09:48:46;;;;;;;37.33;25.37;;;9.70;69.30;;;;;;5052640;28;20207;-68
2022/02/02 09:51:21;;;;;;;30.60;19.03;;;9.80;69.40;;;;;;5052595;28;20321;-69
2022/02/02 09:53:58;;;;;;;26.83;17.33;;;9.90;69.50;;;;;;5053361;28;20221;-69
2022/02/02 10:05:15;;;;;;;22.83;13.93;;;10.30;67.60;;;;;;5046157;28;20216;-69
2022/02/02 10:16:13;;;;;;;19.03;11.97;;;10.70;65.60;;;;;;5026351;28;20207;-69
2022/02/02 10:18:40;;;;;;;22.57;12.90;;;10.80;65.00;;;;;;5036580;28;20212;-69
2022/02/02 10:21:07;;;;;;;22.93;12.43;;;11.00;64.50;;;;;;5035171;28;20231;-69
2022/02/02 10:23:36;;;;;;;19.23;11.13;;;11.00;64.00;;;;;;5042831;28;20784;-69
2022/02/02 10:26:17;;;;;;;15.90;10.77;;;11.10;62.90;;;;;;5055854;28;20224;-69
2022/02/02 10:28:46;;;;;;;15.63;11.40;;;11.20;59.70;;;;;;5043340;28;20207;-69
2022/02/02 10:31:14;;;;;;;17.73;9.80;;;11.20;60.20;;;;;;5039307;28;20236;-69
2022/02/02 10:33:41;;;;;;;15.53;9.63;;;11.30;60.00;;;;;;5041637;28;20203;-69
2022/02/02 10:36:22;;;;;;;17.80;10.47;;;11.30;59.30;;;;;;5051046;28;20214;-69
2022/02/02 10:39:13;;;;;;;14.70;9.40;;;11.30;59.40;;;;;;5042228;28;20209;-69
2022/02/02 10:41:58;;;;;;;14.07;10.53;;;11.40;59.60;;;;;;5044033;28;20213;-69
2022/02/02 10:44:36;;;;;;;16.47;9.73;;;11.50;59.30;;;;;;5042338;28;20266;-69
2022/02/02 10:47:22;;;;;;;15.87;10.10;;;11.50;58.10;;;;;;5040362;28;20199;-69
2022/02/02 11:01:32;;;;;;;18.50;9.80;;;11.60;57.50;;;;;;5040443;28;20641;-69
2022/02/02 11:06:45;;;;;;;15.17;10.70;;;11.60;58.90;;;;;;5051136;28;20222;-69
2022/02/02 11:09:18;;;;;;;18.83;11.63;;;11.70;58.30;;;;;;5025768;28;20262;-69
2022/02/02 11:11:51;;;;;;;15.97;10.77;;;11.80;59.30;;;;;;5044358;28;20572;-69
2022/02/02 11:14:24;;;;;;;17.87;10.80;;;11.90;58.90;;;;;;5043600;28;20660;-69
2022/02/02 11:17:05;;;;;;;14.50;10.50;;;11.90;57.70;;;;;;5039803;28;20199;-69
2022/02/02 11:19:36;;;;;;;16.63;10.90;;;12.00;58.20;;;;;;5039796;28;20207;-69
2022/02/02 11:22:32;;;;;;;18.57;10.77;;;12.10;58.30;;;;;;5049911;28;20249;-69
2022/02/02 11:25:03;;;;;;;20.60;10.70;;;12.20;58.30;;;;;;5043895;28;20308;-69
2022/02/02 11:27:39;;;;;;;19.87;11.60;;;12.30;57.80;;;;;;5039687;28;20209;-70
2022/02/02 11:30:23;;;;;;;27.33;12.80;;;12.40;58.70;;;;;;5024119;28;20220;-70
2022/02/02 11:32:52;;;;;;;15.40;10.87;;;12.50;57.80;;;;;;5041188;28;20204;-70
2022/02/02 11:38:32;;;;;;;13.53;9.20;;;12.70;56.90;;;;;;5049392;28;20213;-70
2022/02/02 11:43:49;;;;;;;13.73;9.00;;;13.00;55.30;;;;;;5036329;28;20288;-69
2022/02/02 11:49:30;;;;;;;15.50;8.53;;;13.10;54.50;;;;;;5044785;28;20202;-70
2022/02/02 11:52:04;;;;;;;12.83;9.50;;;13.30;54.50;;;;;;5045260;28;20220;-70
2022/02/02 11:54:31;;;;;;;13.17;9.03;;;13.40;54.10;;;;;;5043607;28;20206;-70
2022/02/02 11:57:03;;;;;;;14.47;8.10;;;13.50;53.30;;;;;;5043557;28;20228;-70
2022/02/02 12:02:49;;;;;;;10.50;6.73;;;13.80;52.50;;;;;;5044189;28;20208;-70
2022/02/02 12:05:44;;;;;;;11.27;7.70;;;13.80;51.80;;;;;;5043806;28;20216;-70
2022/02/02 12:08:45;;;;;;;9.40;7.20;;;13.90;52.40;;;;;;5044247;28;20214;-70
2022/02/02 12:47:31;;;;;;;12.10;8.10;;;14.50;50.60;;;;;;5051359;28;20202;-71
2022/02/02 12:50:13;;;;;;;13.97;9.07;;;14.50;51.40;;;;;;5048240;28;20644;-71
2022/02/02 12:58:36;;;;;;;11.43;7.90;;;14.60;51.40;;;;;;5042168;28;20197;-71
2022/02/02 13:01:09;;;;;;;9.77;7.90;;;14.70;51.30;;;;;;5043587;28;20654;-71
2022/02/02 13:03:39;;;;;;;11.90;7.73;;;14.70;50.90;;;;;;5051949;28;20220;-71
2022/02/02 13:06:15;;;;;;;11.87;8.57;;;14.80;50.80;;;;;;5037341;28;20213;-71
2022/02/02 13:08:46;;;;;;;13.50;8.13;;;14.80;51.20;;;;;;5047100;28;20569;-71
2022/02/02 13:11:13;;;;;;;12.63;8.83;;;14.90;51.40;;;;;;5046347;28;20292;-71
2022/02/02 13:13:47;;;;;;;10.47;8.57;;;14.90;51.60;;;;;;5043603;28;20196;-71
2022/02/02 13:16:23;;;;;;;14.17;8.87;;;14.90;50.70;;;;;;5045503;28;20206;-71
2022/02/02 13:18:55;;;;;;;13.00;8.67;;;15.00;50.70;;;;;;5033155;28;20514;-71
2022/02/02 13:21:30;;;;;;;13.87;8.47;;;15.00;51.00;;;;;;5039747;28;20238;-71
2022/02/02 13:29:36;;;;;;;11.57;8.13;;;15.00;51.00;;;;;;5040143;28;20287;-70
2022/02/02 13:32:28;;;;;;;13.03;8.70;;;15.00;50.90;;;;;;5044173;28;20599;-70
2022/02/02 13:49:34;;;;;;;11.97;8.53;;;15.00;50.60;;;;;;5048415;28;20218;-71
2022/02/02 13:55:40;;;;;;;11.87;7.87;;;15.00;50.80;;;;;;5041450;28;20305;-71
2022/02/02 14:01:14;;;;;;;11.03;7.50;;;15.00;51.10;;;;;;5035945;28;20213;-71
2022/02/02 14:11:50;;;;;;;8.87;7.23;;;15.00;51.20;;;;;;5047797;28;20225;-71
2022/02/02 14:33:49;;;;;;;17.17;8.30;;;14.90;52.10;;;;;;5043518;28;20269;-69
2022/02/02 14:36:20;;;;;;;13.63;8.17;;;14.90;51.60;;;;;;5036364;28;20245;-69
2022/02/02 14:38:54;;;;;;;12.87;7.40;;;14.80;51.60;;;;;;5048275;28;20685;-69
2022/02/02 14:41:48;;;;;;;14.37;7.90;;;14.90;51.80;;;;;;5032995;28;20408;-70
2022/02/02 14:44:27;;;;;;;11.03;8.20;;;14.80;51.70;;;;;;5043092;28;20200;-70
2022/02/02 14:47:21;;;;;;;12.47;8.50;;;14.80;51.80;;;;;;5051937;28;20204;-70
2022/02/02 14:49:56;;;;;;;11.97;7.33;;;14.80;51.90;;;;;;5038910;28;20232;-70
2022/02/02 14:52:33;;;;;;;14.60;8.23;;;14.80;52.10;;;;;;5047940;28;20236;-70
2022/02/02 15:27:52;;;;;;;9.60;7.93;;;14.10;54.70;;;;;;5046137;28;20644;-70
2022/02/02 15:32:55;;;;;;;10.90;8.53;;;14.00;54.90;;;;;;5041821;28;20220;-71
2022/02/02 15:35:24;;;;;;;10.77;7.70;;;14.00;55.20;;;;;;5039002;28;20202;-70
2022/02/02 15:37:57;;;;;;;12.70;8.23;;;13.90;55.40;;;;;;5040109;28;20222;-70
2022/02/02 15:40:33;;;;;;;11.47;8.13;;;13.90;55.50;;;;;;5038919;28;20240;-70
2022/02/02 15:58:52;;;;;;;12.37;8.07;;;13.40;56.70;;;;;;5038922;28;20235;-70
2022/02/02 16:04:20;;;;;;;13.53;7.80;;;13.30;57.20;;;;;;5036626;28;20602;-70
2022/02/02 16:06:49;;;;;;;9.60;7.93;;;13.20;57.40;;;;;;5052259;28;20633;-70
2022/02/02 16:09:30;;;;;;;9.70;8.20;;;13.20;57.60;;;;;;5036366;28;20200;-70
2022/02/02 16:12:11;;;;;;;14.50;8.73;;;13.10;57.60;;;;;;5040009;28;20219;-70
2022/02/02 16:14:45;;;;;;;11.33;8.13;;;13.10;57.70;;;;;;5037281;28;20226;-70
2022/02/02 16:17:39;;;;;;;12.10;8.37;;;13.00;57.70;;;;;;5046210;28;20188;-70
2022/02/02 16:36:16;;;;;;;15.43;9.43;;;12.40;59.10;;;;;;5047070;28;20644;-70
2022/02/02 16:38:57;;;;;;;11.80;8.43;;;12.30;59.30;;;;;;5041589;28;20208;-70
2022/02/02 16:44:12;;;;;;;12.63;9.10;;;12.10;59.70;;;;;;5051511;28;20205;-70
2022/02/02 16:46:39;;;;;;;15.03;9.57;;;11.90;60.00;;;;;;5037039;28;20292;-70
2022/02/02 16:49:08;;;;;;;13.80;9.50;;;11.80;60.30;;;;;;5041147;28;20290;-70
2022/02/02 16:51:36;;;;;;;15.30;10.03;;;11.80;60.80;;;;;;5056973;28;20226;-70
2022/02/02 16:54:08;;;;;;;11.37;8.97;;;11.70;60.90;;;;;;5041305;28;20204;-70
2022/02/02 17:25:00;;;;;;;19.03;12.17;;;10.70;62.80;;;;;;5047245;28;20632;-70
2022/02/02 17:30:16;;;;;;;20.83;11.60;;;10.50;63.40;;;;;;5041141;28;20202;-70
2022/02/02 17:32:52;;;;;;;15.93;11.57;;;10.50;63.70;;;;;;5049853;28;20609;-70
2022/02/02 17:38:05;;;;;;;17.67;12.50;;;10.40;63.70;;;;;;5046231;28;20205;-70
2022/02/02 17:40:42;;;;;;;22.00;12.70;;;10.30;63.60;;;;;;5049826;28;20208;-71
2022/02/02 17:45:49;;;;;;;22.90;13.60;;;10.10;65.10;;;;;;5048758;28;20565;-70
2022/02/02 18:19:03;;;;;;;23.97;14.07;;;9.20;66.20;;;;;;5047352;28;20211;-70
2022/02/02 18:21:31;;;;;;;18.10;13.93;;;9.20;66.80;;;;;;5039732;28;20253;-70
2022/02/02 18:24:27;;;;;;;20.90;13.60;;;9.10;67.30;;;;;;5042974;28;20561;-70
2022/02/02 18:26:53;;;;;;;17.77;13.47;;;9.10;67.40;;;;;;5051591;28;20211;-71
2022/02/02 18:34:38;;;;;;;20.83;14.27;;;9.10;67.10;;;;;;5046398;28;20203;-70
2022/02/02 18:41:25;;;;;;;24.10;15.00;;;9.00;66.80;;;;;;5038909;28;20566;-71
2022/02/02 18:48:35;;;;;;;26.50;15.03;;;8.90;67.50;;;;;;5051089;28;20207;-70
2022/02/02 18:51:23;;;;;;;23.90;14.93;;;8.80;67.80;;;;;;5046391;28;20210;-70
2022/02/02 19:31:58;;;;;;;26.97;17.73;;;8.20;69.80;;;;;;5041090;28;20214;-70
2022/02/02 19:40:17;;;;;;;23.70;15.17;;;8.20;69.40;;;;;;5050320;28;20301;-70
2022/02/02 20:02:14;;;;;;;21.87;16.07;;;7.80;70.60;;;;;;5043567;28;20539;-71
2022/02/02 20:10:04;;;;;;;21.53;15.53;;;7.70;71.20;;;;;;5045007;28;20194;-70
2022/02/02 20:12:36;;;;;;;22.93;15.93;;;7.70;71.40;;;;;;5034461;28;20629;-70
2022/02/02 20:15:06;;;;;;;20.43;15.87;;;7.70;70.60;;;;;;5043705;28;20190;-70
2022/02/02 20:17:35;;;;;;;24.00;15.23;;;7.70;70.60;;;;;;5052906;28;20541;-71
2022/02/02 20:20:13;;;;;;;23.47;16.67;;;7.60;70.70;;;;;;5041214;28;20209;-70
2022/02/02 20:22:42;;;;;;;21.07;16.40;;;7.60;70.50;;;;;;5044825;28;20235;-71
2022/02/02 20:25:13;;;;;;;23.43;15.80;;;7.50;70.90;;;;;;5041466;28;20282;-71
2022/02/02 20:27:41;;;;;;;24.37;16.00;;;7.50;71.10;;;;;;5061456;28;20390;-71
2022/02/02 20:30:11;;;;;;;20.53;14.33;;;7.50;71.80;;;;;;5041479;28;20221;-71
2022/02/02 20:32:40;;;;;;;32.37;18.10;;;7.50;71.40;;;;;;5047819;28;20225;-70
2022/02/02 20:35:08;;;;;;;37.13;18.73;;;7.40;70.90;;;;;;5036421;28;20613;-70
2022/02/02 20:37:36;;;;;;;28.63;18.43;;;7.40;71.30;;;;;;5054855;28;20286;-70
2022/02/02 20:40:07;;;;;;;33.67;18.20;;;7.30;71.80;;;;;;5052045;28;20304;-70
2022/02/02 20:42:47;;;;;;;25.70;18.17;;;7.30;72.10;;;;;;5042027;28;20199;-70
2022/02/02 21:04:57;;;;;;;22.10;17.43;;;6.70;71.70;;;;;;5049998;28;20220;-71
2022/02/02 21:07:33;;;;;;;28.17;18.53;;;6.70;72.60;;;;;;5039409;28;20195;-71
2022/02/02 21:10:11;;;;;;;24.73;15.90;;;6.70;72.00;;;;;;5046396;28;20295;-70
2022/02/02 21:15:29;;;;;;;29.43;18.17;;;6.60;72.10;;;;;;5048732;28;20590;-70
2022/02/02 21:18:06;;;;;;;28.10;18.57;;;6.50;73.70;;;;;;5042928;28;20202;-71
2022/02/02 21:20:46;;;;;;;28.80;18.70;;;6.40;73.80;;;;;;5043219;28;20213;-70
2022/02/02 21:26:18;;;;;;;30.97;19.47;;;6.40;72.30;;;;;;5051893;28;20578;-72
2022/02/02 21:28:46;;;;;;;28.03;17.23;;;6.30;72.90;;;;;;5048275;28;20209;-72
2022/02/02 21:31:14;;;;;;;25.67;17.20;;;6.20;74.10;;;;;;5040826;28;20206;-71
2022/02/02 21:33:41;;;;;;;22.33;16.90;;;6.20;74.60;;;;;;5042910;28;20649;-70
2022/02/02 21:36:09;;;;;;;30.03;18.50;;;6.20;73.10;;;;;;5048481;28;20198;-70
2022/02/02 21:38:56;;;;;;;25.03;16.73;;;6.00;73.60;;;;;;5051359;28;20205;-70
2022/02/02 21:41:30;;;;;;;24.53;17.00;;;6.00;74.10;;;;;;5039224;28;20224;-70
2022/02/02 21:43:57;;;;;;;24.10;16.50;;;5.90;73.60;;;;;;5045636;28;20222;-70
2022/02/02 21:46:26;;;;;;;26.00;17.60;;;5.80;73.50;;;;;;5050379;28;20252;-70
2022/02/02 21:48:54;;;;;;;24.23;17.03;;;5.70;73.30;;;;;;5048401;28;20215;-70
2022/02/02 21:51:27;;;;;;;23.63;17.63;;;5.70;73.90;;;;;;5051190;28;20205;-70
2022/02/02 21:53:55;;;;;;;28.50;17.73;;;5.60;74.30;;;;;;5040518;28;20740;-71
2022/02/02 21:56:23;;;;;;;25.37;18.10;;;5.50;74.70;;;;;;5048227;28;20576;-70
2022/02/02 21:58:51;;;;;;;27.13;16.20;;;5.40;74.50;;;;;;5048612;28;20530;-70
2022/02/02 22:01:18;;;;;;;24.57;18.10;;;5.30;75.30;;;;;;5043850;28;20257;-70
2022/02/02 22:03:45;;;;;;;26.90;18.43;;;5.20;75.00;;;;;;5047165;28;20524;-70
2022/02/02 22:06:13;;;;;;;28.03;19.10;;;5.20;75.40;;;;;;5024262;28;20221;-70
2022/02/02 22:08:41;;;;;;;29.00;20.07;;;5.20;76.60;;;;;;5041291;28;20214;-71
2022/02/02 22:11:09;;;;;;;30.00;19.17;;;5.20;78.00;;;;;;5042905;28;20319;-70
2022/02/02 22:13:43;;;;;;;27.57;18.40;;;5.30;78.20;;;;;;5050585;28;20286;-70
2022/02/02 22:16:15;;;;;;;28.53;18.10;;;5.40;76.80;;;;;;5049102;28;20205;-70
2022/02/02 22:18:45;;;;;;;28.47;18.27;;;5.30;77.70;;;;;;5028559;28;20270;-70
2022/02/02 22:21:12;;;;;;;29.30;18.20;;;5.30;78.40;;;;;;5040689;28;20912;-70
2022/02/02 22:23:41;;;;;;;27.77;18.83;;;5.30;78.60;;;;;;5026333;28;20308;-70
2022/02/02 22:26:11;;;;;;;30.37;18.13;;;5.30;78.40;;;;;;5051906;28;20205;-70
2022/02/02 22:28:40;;;;;;;23.63;17.43;;;5.30;78.20;;;;;;5061254;28;20237;-70
2022/02/02 22:31:07;;;;;;;24.67;17.40;;;5.30;78.50;;;;;;5049607;28;20212;-70
2022/02/02 22:33:34;;;;;;;28.83;18.60;;;5.30;78.60;;;;;;5043206;28;20220;-70
2022/02/02 22:36:01;;;;;;;27.77;18.17;;;5.30;78.40;;;;;;5046670;28;20203;-70
2022/02/02 22:38:29;;;;;;;27.07;19.33;;;5.30;77.00;;;;;;5050242;28;20209;-70
2022/02/02 22:40:58;;;;;;;27.30;18.30;;;5.20;77.30;;;;;;5041826;28;20201;-70
2022/02/02 22:43:29;;;;;;;26.87;17.57;;;5.20;78.10;;;;;;5040560;28;20606;-70
2022/02/02 22:45:57;;;;;;;30.73;18.63;;;5.20;78.40;;;;;;5036180;28;20484;-70
2022/02/02 22:48:25;;;;;;;27.20;19.07;;;5.10;77.20;;;;;;5023717;28;20595;-70
2022/02/02 22:50:53;;;;;;;32.40;19.67;;;5.10;78.00;;;;;;5045098;28;20225;-70
2022/02/02 22:53:23;;;;;;;31.13;19.37;;;5.00;79.30;;;;;;5047297;28;20672;-70
2022/02/02 22:55:51;;;;;;;26.13;19.27;;;5.00;79.30;;;;;;5038676;28;20217;-70
2022/02/02 22:58:18;;;;;;;26.33;16.50;;;5.00;79.50;;;;;;5040127;28;20682;-70
2022/02/02 23:00:48;;;;;;;25.77;18.50;;;4.90;79.20;;;;;;5039275;28;20200;-70
2022/02/02 23:03:19;;;;;;;26.50;17.30;;;4.90;79.30;;;;;;5046573;28;20204;-69
2022/02/02 23:05:52;;;;;;;24.63;17.93;;;4.80;78.20;;;;;;5022455;28;20216;-70
2022/02/02 23:08:21;;;;;;;28.83;18.13;;;4.80;78.20;;;;;;5043558;28;20197;-70
2022/02/02 23:10:48;;;;;;;30.13;18.20;;;4.70;78.10;;;;;;5044659;28;20216;-69
2022/02/02 23:13:15;;;;;;;27.67;17.57;;;4.60;78.00;;;;;;5038678;28;20231;-70
2022/02/02 23:18:26;;;;;;;24.67;16.40;;;4.50;78.40;;;;;;5045241;28;20218;-69
2022/02/02 23:20:59;;;;;;;26.77;19.57;;;4.40;78.40;;;;;;5031920;28;20251;-70
2022/02/02 23:23:31;;;;;;;25.17;17.03;;;4.40;78.40;;;;;;5034298;28;20707;-70
2022/02/02 23:26:01;;;;;;;23.70;17.97;;;4.30;78.80;;;;;;5047984;28;20216;-70
2022/02/02 23:28:31;;;;;;;24.23;17.00;;;4.20;77.60;;;;;;5042259;28;20202;-70
2022/02/02 23:31:04;;;;;;;31.37;18.50;;;4.10;77.80;;;;;;5046797;28;20658;-70
2022/02/02 23:33:33;;;;;;;27.27;18.93;;;4.10;78.40;;;;;;5050793;28;20229;-70
2022/02/02 23:36:01;;;;;;;23.53;18.27;;;4.10;78.90;;;;;;5049940;28;20204;-70
2022/02/02 23:38:30;;;;;;;25.80;17.30;;;4.10;79.20;;;;;;5038867;28;20278;-70
2022/02/02 23:43:43;;;;;;;25.97;18.17;;;4.00;79.70;;;;;;5044320;28;20221;-69
2022/02/02 23:46:14;;;;;;;31.00;18.97;;;4.00;79.70;;;;;;5048520;28;20220;-70
2022/02/02 23:48:45;;;;;;;28.87;19.07;;;4.10;80.30;;;;;;5046687;28;20204;-70
2022/02/02 23:51:20;;;;;;;28.60;19.80;;;4.10;80.90;;;;;;5041096;28;20199;-69
2022/02/02 23:53:47;;;;;;;23.43;17.80;;;4.10;81.00;;;;;;5036564;28;20640;-69
2022/02/02 23:56:35;;;;;;;22.87;16.80;;;4.20;80.20;;;;;;5045840;28;20196;-70
2022/02/02 23:59:12;;;;;;;27.40;18.50;;;4.10;79.00;;;;;;5052333;28;20523;-70
